Time;durP1;ratioP1;P1;durP2;ratioP2;P2;SDS_P1;SDS_P2;PMS_P1;PMS_P2;Temp;Humidity;BMP_temperature;BMP_pressure;BME280_temperature;BME280_humidity;BME280_pressure;Samples;Min_cycle;Max_cycle;Signal;HPM_P1;HPM_P2
2022/03/20 00:01:13;;;;;;;40.35;17.05;;;3.40;99.90;;;;;;5025653;28;20075;-74
2022/03/20 00:03:39;;;;;;;38.58;16.20;;;3.40;99.90;;;;;;5028245;28;20068;-79
2022/03/20 00:06:05;;;;;;;46.20;18.15;;;3.40;99.90;;;;;;5024689;28;20033;-74
2022/03/20 00:08:31;;;;;;;37.78;16.02;;;3.40;99.90;;;;;;5015499;28;20045;-75
2022/03/20 00:11:01;;;;;;;47.03;17.13;;;3.40;99.90;;;;;;5017403;28;20112;-74
2022/03/20 00:13:27;;;;;;;44.35;17.55;;;3.40;99.90;;;;;;5025888;28;20069;-74
2022/03/20 00:15:54;;;;;;;43.28;17.15;;;3.40;99.90;;;;;;5026879;28;20044;-74
2022/03/20 00:18:21;;;;;;;40.97;17.30;;;3.30;99.90;;;;;;5026796;28;20124;-74
2022/03/20 00:20:53;;;;;;;44.63;17.05;;;3.40;99.90;;;;;;5024197;28;20203;-74
2022/03/20 00:23:19;;;;;;;45.40;17.27;;;3.30;99.90;;;;;;5028914;28;20030;-75
2022/03/20 00:25:46;;;;;;;41.90;17.52;;;3.30;99.90;;;;;;5025296;28;20025;-75
2022/03/20 00:28:15;;;;;;;43.53;17.35;;;3.30;99.90;;;;;;5023221;28;20032;-74
2022/03/20 00:30:41;;;;;;;42.30;17.13;;;3.30;99.90;;;;;;5020041;28;20030;-79
2022/03/20 00:33:08;;;;;;;42.00;17.17;;;3.30;99.90;;;;;;5021569;28;20033;-75
2022/03/20 00:35:34;;;;;;;42.53;18.30;;;3.30;99.90;;;;;;5024364;28;20083;-76
2022/03/20 00:37:59;;;;;;;40.65;17.45;;;3.40;99.90;;;;;;5025717;28;20864;-74
2022/03/20 00:40:25;;;;;;;46.30;17.58;;;3.40;99.90;;;;;;5023865;28;20045;-75
2022/03/20 00:42:52;;;;;;;38.70;17.73;;;3.50;99.90;;;;;;5025739;28;20026;-74
2022/03/20 00:45:18;;;;;;;44.55;17.63;;;3.50;99.90;;;;;;5025162;28;20117;-74
2022/03/20 00:47:44;;;;;;;44.47;18.25;;;3.60;99.90;;;;;;5022221;28;20033;-78
2022/03/20 00:50:10;;;;;;;45.10;17.15;;;3.60;99.90;;;;;;5026914;28;20033;-75
2022/03/20 00:52:36;;;;;;;44.20;18.10;;;3.70;99.90;;;;;;5026911;28;20120;-74
2022/03/20 00:55:03;;;;;;;49.03;18.50;;;3.70;99.90;;;;;;5026513;28;20076;-74
2022/03/20 00:57:29;;;;;;;44.70;18.35;;;3.70;99.90;;;;;;5018468;28;20034;-75
2022/03/20 00:59:54;;;;;;;41.13;17.58;;;3.70;99.90;;;;;;5028933;28;20082;-74
2022/03/20 01:02:20;;;;;;;45.22;18.20;;;3.80;99.90;;;;;;4982161;28;1112060;-74
2022/03/20 01:04:46;;;;;;;47.28;18.55;;;3.80;99.90;;;;;;5018667;28;20030;-77
2022/03/20 01:07:12;;;;;;;49.03;19.00;;;3.80;99.90;;;;;;5026615;28;20484;-74
2022/03/20 01:09:38;;;;;;;46.15;17.75;;;3.90;99.90;;;;;;5020468;28;20111;-74
2022/03/20 01:12:05;;;;;;;42.60;18.15;;;3.90;99.90;;;;;;5012417;28;20034;-75
2022/03/20 01:14:30;;;;;;;42.70;17.20;;;3.90;99.90;;;;;;5010587;28;20488;-74
2022/03/20 01:16:56;;;;;;;48.58;18.88;;;4.00;99.90;;;;;;5015684;28;20083;-74
2022/03/20 01:19:26;;;;;;;44.45;18.70;;;4.00;99.90;;;;;;5019331;28;20113;-74
2022/03/20 01:21:53;;;;;;;49.60;19.40;;;4.00;99.90;;;;;;5027354;28;20032;-74
2022/03/20 01:24:19;;;;;;;51.28;20.00;;;4.10;99.90;;;;;;5020986;28;20030;-74
2022/03/20 01:26:45;;;;;;;49.22;19.40;;;4.20;99.90;;;;;;5027719;28;20026;-79
2022/03/20 01:29:11;;;;;;;47.35;19.70;;;4.30;99.90;;;;;;5016355;28;20080;-73
2022/03/20 01:31:38;;;;;;;50.60;19.10;;;4.30;99.90;;;;;;5025842;28;20041;-78
2022/03/20 01:34:04;;;;;;;48.78;19.27;;;4.30;99.90;;;;;;5020001;28;20063;-76
2022/03/20 01:36:30;;;;;;;48.70;18.85;;;4.30;99.90;;;;;;5030024;28;20033;-78
2022/03/20 01:38:56;;;;;;;47.85;19.02;;;4.30;99.90;;;;;;5025880;28;20041;-75
2022/03/20 01:41:23;;;;;;;45.90;18.25;;;4.30;99.90;;;;;;5025159;28;20415;-74
2022/03/20 01:43:54;;;;;;;46.28;19.42;;;4.40;99.90;;;;;;5026283;28;20041;-76
2022/03/20 01:46:20;;;;;;;;;;;4.40;99.90;;;;;;5030294;28;20487;-74
2022/03/20 01:48:45;;;;;;;47.90;18.63;;;4.40;99.90;;;;;;5016556;28;19955;-78
2022/03/20 01:51:12;;;;;;;45.75;18.13;;;4.40;99.90;;;;;;5016741;28;20026;-74
2022/03/20 01:53:38;;;;;;;47.92;19.92;;;4.40;99.90;;;;;;5020220;28;20542;-75
2022/03/20 01:56:05;;;;;;;48.38;19.10;;;4.40;99.90;;;;;;5029229;28;20104;-74
2022/03/20 01:58:32;;;;;;;49.95;19.45;;;4.40;99.90;;;;;;5027504;28;20029;-74
2022/03/20 02:00:58;;;;;;;50.97;18.88;;;4.30;99.90;;;;;;5021769;28;20494;-74
2022/03/20 02:03:24;;;;;;;47.22;19.17;;;4.30;99.90;;;;;;5014181;28;20177;-75
2022/03/20 02:05:50;;;;;;;51.17;19.05;;;4.30;99.90;;;;;;5020631;28;20056;-77
2022/03/20 02:08:16;;;;;;;48.13;19.10;;;4.30;99.90;;;;;;5027908;28;20029;-74
2022/03/20 02:10:43;;;;;;;50.22;19.77;;;4.30;99.90;;;;;;5027715;28;20040;-74
2022/03/20 02:13:09;;;;;;;52.60;19.65;;;4.30;99.90;;;;;;5024434;28;20026;-74
2022/03/20 02:15:36;;;;;;;51.20;20.10;;;4.30;99.90;;;;;;5025086;28;20136;-74
2022/03/20 02:18:03;;;;;;;47.25;19.42;;;4.30;99.90;;;;;;5026059;28;20084;-74
2022/03/20 02:20:29;;;;;;;48.67;19.60;;;4.30;99.90;;;;;;5020174;28;20096;-74
2022/03/20 02:22:55;;;;;;;51.60;20.17;;;4.30;99.90;;;;;;5019445;28;20069;-76
2022/03/20 02:25:21;;;;;;;54.33;20.35;;;4.30;99.90;;;;;;5025495;28;20033;-74
2022/03/20 02:27:47;;;;;;;55.63;19.98;;;4.30;99.90;;;;;;5022854;28;20033;-78
2022/03/20 02:30:16;;;;;;;63.05;21.02;;;4.20;99.90;;;;;;5020870;28;20057;-74
2022/03/20 02:32:48;;;;;;;46.40;18.30;;;4.20;99.90;;;;;;5017792;28;20048;-74
2022/03/20 02:35:17;;;;;;;54.17;19.92;;;4.30;99.90;;;;;;5019814;28;20124;-74
2022/03/20 02:37:48;;;;;;;51.13;20.13;;;4.30;99.90;;;;;;5013358;28;20079;-73
2022/03/20 02:40:17;;;;;;;53.80;20.08;;;4.30;99.90;;;;;;5020013;28;20045;-75
2022/03/20 02:42:45;;;;;;;48.13;19.02;;;4.30;99.90;;;;;;5012347;28;20046;-73
2022/03/20 02:45:16;;;;;;;47.53;19.35;;;4.30;99.90;;;;;;5008682;28;20626;-73
2022/03/20 02:47:44;;;;;;;54.83;20.55;;;4.30;99.90;;;;;;5011654;28;20492;-73
2022/03/20 02:50:18;;;;;;;52.50;19.45;;;4.30;99.90;;;;;;5008223;28;20041;-75
2022/03/20 02:52:48;;;;;;;53.92;20.05;;;4.30;99.90;;;;;;5010843;28;20148;-74
2022/03/20 02:55:16;;;;;;;54.00;20.52;;;4.40;99.90;;;;;;5009635;28;20029;-74
2022/03/20 02:57:42;;;;;;;47.85;18.48;;;4.40;99.90;;;;;;5010764;28;20034;-73
2022/03/20 03:00:10;;;;;;;52.83;19.67;;;4.50;99.90;;;;;;5011119;28;20041;-75
2022/03/20 03:02:43;;;;;;;46.65;19.42;;;4.50;99.90;;;;;;5018533;28;21218;-73
2022/03/20 03:05:11;;;;;;;54.35;20.20;;;4.50;99.90;;;;;;5014777;28;20026;-75
2022/03/20 03:10:55;;;;;;;48.55;19.10;;;4.50;99.90;;;;;;5022086;28;20533;-74
2022/03/20 03:13:09;;;;;;;49.47;18.83;;;4.50;99.90;;;;;;5011679;28;20036;-74
2022/03/20 03:15:34;;;;;;;49.13;20.63;;;4.40;99.90;;;;;;5011798;28;20132;-74
2022/03/20 03:18:00;;;;;;;54.03;20.30;;;4.40;99.90;;;;;;5014813;28;20038;-73
2022/03/20 03:20:26;;;;;;;52.15;20.48;;;4.40;99.90;;;;;;5017705;28;20049;-74
2022/03/20 03:22:52;;;;;;;54.22;20.08;;;4.30;99.90;;;;;;5012321;28;20024;-78
2022/03/20 03:25:18;;;;;;;53.63;20.67;;;4.20;99.90;;;;;;5022475;28;20042;-74
2022/03/20 03:27:44;;;;;;;52.97;20.35;;;4.20;99.90;;;;;;5014490;28;20026;-75
2022/03/20 03:30:12;;;;;;;50.55;20.00;;;4.10;99.90;;;;;;5023251;28;20035;-77
2022/03/20 03:32:40;;;;;;;49.88;19.92;;;4.10;99.90;;;;;;5029577;28;20030;-75
2022/03/20 03:37:54;;;;;;;49.38;19.65;;;4.20;99.90;;;;;;5007671;28;20388;-78
2022/03/20 03:40:19;;;;;;;52.10;20.52;;;4.20;99.90;;;;;;5026235;28;20041;-73
2022/03/20 03:42:46;;;;;;;51.80;20.30;;;4.20;99.90;;;;;;5028235;28;20040;-74
2022/03/20 03:45:12;;;;;;;48.47;20.77;;;4.30;99.90;;;;;;5025828;28;20022;-73
2022/03/20 03:47:40;;;;;;;50.58;20.25;;;4.30;99.90;;;;;;5011245;28;20527;-75
2022/03/20 03:50:07;;;;;;;55.40;20.60;;;4.30;99.90;;;;;;4997958;28;20534;-74
2022/03/20 03:52:32;;;;;;;53.90;21.27;;;4.30;99.90;;;;;;5016583;28;20518;-74
2022/03/20 03:54:58;;;;;;;47.47;20.67;;;4.20;99.90;;;;;;5013362;28;20029;-76
2022/03/20 03:57:24;;;;;;;52.58;21.17;;;4.20;99.90;;;;;;5016075;28;20108;-75
2022/03/20 03:59:49;;;;;;;50.35;20.58;;;4.30;99.90;;;;;;5016351;28;20033;-74
2022/03/20 04:02:15;;;;;;;53.60;20.48;;;4.30;99.90;;;;;;5020876;28;20017;-74
2022/03/20 04:04:42;;;;;;;56.28;21.45;;;4.30;99.90;;;;;;5032142;28;20062;-74
2022/03/20 04:07:08;;;;;;;55.72;21.00;;;4.30;99.90;;;;;;5019358;28;20430;-74
2022/03/20 04:09:34;;;;;;;52.05;20.70;;;4.30;99.90;;;;;;5030291;28;20116;-73
2022/03/20 04:12:00;;;;;;;50.65;20.42;;;4.40;99.90;;;;;;5022396;28;20041;-74
2022/03/20 04:14:26;;;;;;;54.63;20.90;;;4.40;99.90;;;;;;5030203;28;20033;-73
2022/03/20 04:16:54;;;;;;;50.22;21.20;;;4.40;99.90;;;;;;5017997;28;20034;-73
2022/03/20 04:19:20;;;;;;;55.63;21.30;;;4.40;99.90;;;;;;5014095;28;20038;-73
2022/03/20 04:21:48;;;;;;;53.10;20.23;;;4.40;99.90;;;;;;5020726;28;20081;-74
2022/03/20 04:24:14;;;;;;;50.58;20.13;;;4.40;99.90;;;;;;5042953;28;20896;-75
2022/03/20 04:26:40;;;;;;;51.05;19.88;;;4.40;99.90;;;;;;5021546;28;20045;-74
2022/03/20 04:29:06;;;;;;;52.30;21.10;;;4.40;99.90;;;;;;5010409;28;20044;-73
2022/03/20 04:31:31;;;;;;;52.65;21.38;;;4.50;99.90;;;;;;5014259;28;20022;-73
2022/03/20 04:33:57;;;;;;;45.38;19.67;;;4.50;99.90;;;;;;5014837;28;20038;-78
2022/03/20 04:36:25;;;;;;;49.85;20.27;;;4.50;99.90;;;;;;5010213;28;20037;-74
2022/03/20 04:38:52;;;;;;;55.53;21.00;;;4.60;99.90;;;;;;5027179;28;20033;-74
2022/03/20 04:41:19;;;;;;;51.58;20.38;;;4.60;99.90;;;;;;5027623;28;20037;-77
2022/03/20 04:43:47;;;;;;;54.17;20.60;;;4.60;99.90;;;;;;5010973;28;20053;-74
2022/03/20 04:46:13;;;;;;;53.38;21.70;;;4.50;99.90;;;;;;5012270;28;20429;-73
2022/03/20 04:59:35;;;;;;;58.42;20.70;;;4.50;99.90;;;;;;5021977;28;20119;-74
2022/03/20 05:02:01;;;;;;;53.05;21.23;;;4.50;99.90;;;;;;5013827;28;20059;-74
2022/03/20 05:04:27;;;;;;;56.25;21.08;;;4.50;99.90;;;;;;5026623;28;20061;-73
2022/03/20 05:06:52;;;;;;;51.50;20.92;;;4.40;99.90;;;;;;5027848;28;20037;-75
2022/03/20 05:14:48;;;;;;;55.10;21.02;;;4.40;99.90;;;;;;5017643;28;20044;-73
2022/03/20 05:17:13;;;;;;;52.97;21.63;;;4.50;99.90;;;;;;5028211;28;20029;-75
2022/03/20 05:19:40;;;;;;;52.17;21.10;;;4.40;99.90;;;;;;5022908;28;20460;-74
2022/03/20 05:22:10;;;;;;;53.90;20.23;;;4.40;99.90;;;;;;5023171;28;20036;-73
2022/03/20 05:24:37;;;;;;;56.17;21.38;;;4.40;99.90;;;;;;5021344;28;20021;-74
2022/03/20 05:27:05;;;;;;;51.25;20.67;;;4.40;99.90;;;;;;5008955;28;20034;-74
2022/03/20 05:29:31;;;;;;;54.65;20.92;;;4.40;99.90;;;;;;5022040;28;20042;-74
2022/03/20 05:31:57;;;;;;;56.92;21.90;;;4.40;99.90;;;;;;5019402;28;20029;-74
2022/03/20 05:34:23;;;;;;;49.45;19.45;;;4.40;99.90;;;;;;5018559;28;20044;-75
2022/03/20 05:36:51;;;;;;;54.45;20.15;;;4.40;99.90;;;;;;5009410;28;20042;-75
2022/03/20 05:39:16;;;;;;;51.75;21.30;;;4.40;99.90;;;;;;5028608;28;20045;-76
2022/03/20 05:41:49;;;;;;;52.53;20.98;;;4.40;99.90;;;;;;5027928;28;20029;-78
2022/03/20 05:44:15;;;;;;;62.75;22.50;;;4.40;99.90;;;;;;5018213;28;20152;-74
2022/03/20 05:46:42;;;;;;;58.97;21.13;;;4.40;99.90;;;;;;5011171;28;20112;-74
2022/03/20 05:49:07;;;;;;;54.80;20.95;;;4.40;99.90;;;;;;5008546;28;20034;-75
2022/03/20 05:51:40;;;;;;;59.50;21.48;;;4.40;99.90;;;;;;5009883;28;20026;-74
2022/03/20 05:54:07;;;;;;;51.75;21.25;;;4.50;99.90;;;;;;5009358;28;20035;-74
2022/03/20 05:59:17;;;;;;;56.03;21.02;;;4.50;99.90;;;;;;5009141;28;20092;-74
2022/03/20 06:01:43;;;;;;;58.50;21.88;;;4.60;99.90;;;;;;5008342;28;20742;-73
2022/03/20 06:04:09;;;;;;;57.55;21.40;;;4.50;99.90;;;;;;5009285;28;20096;-76
2022/03/20 06:06:35;;;;;;;52.83;20.98;;;4.50;99.90;;;;;;5009821;28;20029;-74
2022/03/20 06:09:03;;;;;;;56.42;22.20;;;4.60;99.90;;;;;;5009698;28;20037;-79
2022/03/20 06:11:28;;;;;;;54.85;21.33;;;4.60;99.90;;;;;;5009996;28;20025;-74
2022/03/20 06:13:54;;;;;;;54.85;21.60;;;4.60;99.90;;;;;;5013260;28;20433;-74
2022/03/20 06:16:22;;;;;;;59.72;21.55;;;4.60;99.90;;;;;;5012059;28;20428;-74
2022/03/20 06:18:49;;;;;;;55.97;20.98;;;4.60;99.90;;;;;;5009422;28;20547;-75
2022/03/20 06:21:15;;;;;;;53.35;21.35;;;4.60;99.90;;;;;;5009220;28;20033;-74
2022/03/20 06:23:41;;;;;;;57.10;21.90;;;4.70;99.90;;;;;;5009669;28;20040;-74
2022/03/20 06:26:08;;;;;;;50.67;20.67;;;4.70;99.90;;;;;;5007210;28;20105;-75
2022/03/20 06:28:34;;;;;;;60.47;21.55;;;4.70;99.90;;;;;;5009296;28;20029;-74
2022/03/20 06:31:01;;;;;;;53.20;20.40;;;4.80;99.90;;;;;;5013631;28;20030;-74
2022/03/20 06:33:27;;;;;;;51.53;21.40;;;4.80;99.90;;;;;;5011097;28;20033;-75
2022/03/20 06:35:53;;;;;;;56.38;21.65;;;4.80;99.90;;;;;;5009012;28;20041;-73
2022/03/20 06:38:22;;;;;;;54.78;21.55;;;4.90;99.90;;;;;;5007940;28;20034;-73
2022/03/20 06:40:48;;;;;;;52.58;20.65;;;5.00;99.90;;;;;;5007304;28;20483;-74
2022/03/20 06:43:14;;;;;;;53.70;21.23;;;5.00;99.90;;;;;;5011655;28;20034;-74
2022/03/20 06:45:41;;;;;;;51.17;20.42;;;5.10;99.90;;;;;;5024206;28;20030;-72
2022/03/20 06:48:07;;;;;;;53.50;20.52;;;5.10;99.90;;;;;;5027856;28;20435;-76
2022/03/20 06:50:33;;;;;;;52.10;21.42;;;5.10;99.90;;;;;;5000305;28;20109;-73
2022/03/20 06:53:04;;;;;;;59.90;21.67;;;5.20;99.90;;;;;;5012269;28;20048;-73
2022/03/20 06:55:30;;;;;;;53.50;21.90;;;5.30;99.90;;;;;;5023721;28;20065;-74
2022/03/20 06:58:00;;;;;;;51.88;20.35;;;5.40;99.90;;;;;;5017777;28;20036;-77
2022/03/20 07:00:28;;;;;;;54.35;20.90;;;5.50;99.90;;;;;;5012217;28;20041;-74
2022/03/20 07:02:54;;;;;;;57.30;22.50;;;5.60;99.90;;;;;;5008589;28;20057;-74
2022/03/20 07:05:20;;;;;;;53.83;21.38;;;5.70;99.90;;;;;;5008225;28;20030;-74
2022/03/20 07:07:46;;;;;;;53.10;21.48;;;5.80;99.90;;;;;;5010654;28;20034;-74
2022/03/20 07:10:13;;;;;;;53.55;21.15;;;5.80;99.90;;;;;;5008919;28;20124;-73
2022/03/20 07:12:39;;;;;;;54.78;21.50;;;5.80;99.90;;;;;;5017005;28;20029;-74
2022/03/20 07:15:05;;;;;;;58.28;22.10;;;5.90;99.90;;;;;;5017335;28;20052;-78
2022/03/20 07:17:34;;;;;;;53.90;21.90;;;5.90;99.90;;;;;;5022901;28;20468;-74
2022/03/20 07:20:00;;;;;;;52.85;21.20;;;6.00;99.90;;;;;;5022950;28;20131;-74
2022/03/20 07:22:26;;;;;;;52.67;21.73;;;6.00;99.90;;;;;;5012343;28;20672;-74
2022/03/20 07:24:52;;;;;;;55.95;23.38;;;6.00;99.90;;;;;;5018332;28;20465;-73
2022/03/20 07:30:04;;;;;;;54.25;22.35;;;6.20;99.90;;;;;;5031397;28;20115;-73
2022/03/20 07:32:29;;;;;;;54.78;22.30;;;6.20;99.90;;;;;;5026818;28;20025;-74
2022/03/20 07:34:55;;;;;;;54.92;22.65;;;6.30;99.90;;;;;;5012481;28;20034;-73
2022/03/20 07:37:21;;;;;;;53.38;21.83;;;6.40;99.90;;;;;;5016146;28;20030;-72
2022/03/20 07:39:49;;;;;;;57.03;23.00;;;6.50;99.90;;;;;;5015569;28;20100;-75
2022/03/20 07:42:15;;;;;;;56.58;22.70;;;6.50;99.90;;;;;;5012548;28;20034;-75
2022/03/20 07:44:42;;;;;;;56.15;23.10;;;6.70;99.90;;;;;;5011742;28;20034;-74
2022/03/20 07:47:08;;;;;;;55.72;22.88;;;6.80;99.90;;;;;;5011741;28;20080;-79
2022/03/20 07:49:37;;;;;;;53.85;23.00;;;6.90;99.90;;;;;;5013854;28;20029;-74
2022/03/20 07:52:05;;;;;;;55.08;22.65;;;7.00;99.90;;;;;;5008979;28;20025;-74
2022/03/20 07:54:31;;;;;;;54.13;22.33;;;7.00;99.90;;;;;;5015746;28;20533;-74
2022/03/20 07:56:57;;;;;;;62.13;23.27;;;7.00;99.90;;;;;;5010376;28;20045;-73
2022/03/20 07:59:24;;;;;;;54.33;22.55;;;7.10;99.90;;;;;;5018899;28;20098;-74
2022/03/20 08:01:50;;;;;;;58.50;24.00;;;7.30;99.90;;;;;;5032274;28;20033;-71
2022/03/20 08:04:16;;;;;;;58.22;23.10;;;7.30;99.90;;;;;;5018247;28;20042;-74
2022/03/20 08:06:43;;;;;;;57.78;22.50;;;7.40;99.90;;;;;;5012192;28;20022;-74
2022/03/20 08:09:08;;;;;;;56.47;22.40;;;7.60;99.90;;;;;;5021333;28;20787;-79
2022/03/20 08:11:34;;;;;;;57.55;22.73;;;7.70;99.90;;;;;;5016815;28;20026;-74
2022/03/20 08:14:00;;;;;;;54.55;22.25;;;7.80;99.90;;;;;;5013196;28;20032;-75
2022/03/20 08:16:27;;;;;;;54.97;22.73;;;7.90;99.90;;;;;;5011204;28;20080;-74
2022/03/20 08:18:54;;;;;;;51.10;22.13;;;8.00;99.90;;;;;;5011694;28;20041;-73
2022/03/20 08:21:20;;;;;;;53.00;21.33;;;8.20;99.90;;;;;;5013511;28;20571;-75
2022/03/20 08:23:46;;;;;;;51.53;21.48;;;8.30;99.80;;;;;;5011274;28;20492;-74
2022/03/20 08:26:12;;;;;;;53.60;22.63;;;8.40;99.10;;;;;;5011352;28;20033;-79
2022/03/20 08:28:41;;;;;;;53.33;22.52;;;8.50;99.10;;;;;;5011081;28;20064;-75
2022/03/20 08:31:08;;;;;;;54.03;21.30;;;8.70;98.70;;;;;;5009929;28;20092;-74
2022/03/20 08:33:34;;;;;;;52.95;22.23;;;8.90;96.60;;;;;;5013178;28;20037;-74
2022/03/20 08:36:00;;;;;;;54.50;21.27;;;8.90;97.00;;;;;;5028081;28;20037;-75
2022/03/20 08:38:27;;;;;;;48.15;21.45;;;9.10;96.20;;;;;;4995838;28;20037;-74
2022/03/20 08:40:52;;;;;;;49.00;21.83;;;9.20;96.20;;;;;;5010213;28;20038;-73
2022/03/20 08:43:18;;;;;;;54.28;22.60;;;9.40;94.60;;;;;;5010134;28;20044;-75
2022/03/20 08:45:44;;;;;;;49.13;21.30;;;9.60;94.00;;;;;;5041810;28;20473;-75
2022/03/20 08:48:11;;;;;;;50.20;21.88;;;9.50;92.90;;;;;;5010754;28;20057;-79
2022/03/20 08:50:37;;;;;;;56.53;21.85;;;9.50;92.40;;;;;;5011192;28;20040;-72
2022/03/20 08:53:04;;;;;;;54.85;22.05;;;9.60;92.70;;;;;;5011412;28;20041;-74
2022/03/20 08:55:33;;;;;;;49.83;21.95;;;9.70;92.50;;;;;;5010565;28;20037;-73
2022/03/20 08:57:59;;;;;;;53.28;22.20;;;9.80;90.60;;;;;;5011407;28;20502;-75
2022/03/20 09:00:26;;;;;;;50.15;21.15;;;9.80;90.50;;;;;;5010013;28;20038;-75
2022/03/20 09:02:53;;;;;;;51.38;21.55;;;10.00;89.00;;;;;;5011192;28;20038;-73
2022/03/20 09:05:20;;;;;;;52.45;22.40;;;10.00;87.70;;;;;;5010302;28;20044;-75
2022/03/20 09:07:47;;;;;;;52.05;22.00;;;10.10;89.90;;;;;;5010009;28;20021;-74
2022/03/20 09:10:14;;;;;;;49.25;21.27;;;10.30;87.30;;;;;;5010532;28;20034;-80
2022/03/20 09:12:42;;;;;;;47.00;21.40;;;10.40;83.50;;;;;;5019808;28;20041;-76
2022/03/20 09:15:14;;;;;;;53.72;21.13;;;10.70;87.60;;;;;;5009988;28;20723;-75
2022/03/20 09:20:26;;;;;;;45.90;20.50;;;10.90;80.80;;;;;;5010785;28;20391;-72
2022/03/20 09:22:52;;;;;;;48.13;21.52;;;11.00;81.40;;;;;;5015101;28;20421;-73
2022/03/20 09:25:18;;;;;;;44.58;20.23;;;11.10;78.50;;;;;;5024432;28;20171;-74
2022/03/20 09:27:44;;;;;;;49.25;20.50;;;11.20;80.70;;;;;;5020062;28;20076;-75
2022/03/20 09:30:11;;;;;;;48.35;20.95;;;11.30;79.00;;;;;;5009590;28;20025;-78
2022/03/20 09:32:36;;;;;;;44.85;19.77;;;11.50;77.20;;;;;;5010164;28;20072;-74
2022/03/20 09:35:02;;;;;;;44.28;20.35;;;11.60;75.40;;;;;;5010465;28;20472;-72
2022/03/20 09:37:28;;;;;;;46.10;20.70;;;11.70;71.50;;;;;;5010011;28;20071;-73
2022/03/20 09:39:53;;;;;;;47.95;21.15;;;11.60;72.40;;;;;;5009304;28;20042;-74
2022/03/20 09:42:20;;;;;;;46.30;21.77;;;11.70;73.20;;;;;;5013244;28;20033;-74
2022/03/20 09:44:46;;;;;;;46.42;20.50;;;11.80;74.10;;;;;;5009182;28;20053;-74
2022/03/20 09:47:12;;;;;;;48.08;21.05;;;11.90;70.90;;;;;;5011033;28;20037;-74
2022/03/20 09:49:39;;;;;;;42.08;19.52;;;12.00;69.50;;;;;;5013348;28;20029;-75
2022/03/20 09:52:06;;;;;;;44.42;20.73;;;12.10;71.00;;;;;;5009812;28;20400;-71
2022/03/20 09:54:33;;;;;;;42.42;20.13;;;12.00;67.70;;;;;;5009299;28;20487;-72
2022/03/20 09:57:05;;;;;;;42.42;21.60;;;12.30;70.60;;;;;;5009331;28;20048;-74
2022/03/20 09:59:32;;;;;;;44.28;20.10;;;12.50;69.70;;;;;;5013172;28;20034;-72
2022/03/20 10:02:12;;;;;;;48.35;20.00;;;12.50;69.50;;;;;;5006747;28;20036;-77
2022/03/20 10:04:57;;;;;;;45.30;20.83;;;12.70;68.10;;;;;;4992482;28;20594;-74
2022/03/20 10:07:24;;;;;;;44.80;19.92;;;12.70;66.40;;;;;;5004551;28;20044;-71
2022/03/20 10:10:20;;;;;;;42.40;19.40;;;12.60;64.60;;;;;;5010632;28;20116;-72
2022/03/20 10:12:49;;;;;;;39.65;18.88;;;12.90;64.00;;;;;;4998932;28;20074;-71
2022/03/20 10:15:31;;;;;;;45.47;19.45;;;12.90;61.60;;;;;;5021730;28;20037;-78
2022/03/20 10:18:14;;;;;;;50.17;19.60;;;12.80;63.60;;;;;;5008353;28;20342;-69
2022/03/20 10:20:51;;;;;;;40.03;18.38;;;13.00;62.80;;;;;;5008253;28;20038;-70
2022/03/20 10:23:39;;;;;;;43.47;19.73;;;13.20;61.10;;;;;;5009902;28;20030;-66
2022/03/20 10:26:10;;;;;;;41.53;19.42;;;13.40;59.70;;;;;;5008829;28;20030;-69
2022/03/20 10:28:36;;;;;;;42.20;20.13;;;13.70;60.20;;;;;;5008795;28;20637;-69
2022/03/20 10:31:04;;;;;;;42.78;19.42;;;13.90;63.50;;;;;;5009565;28;20030;-69
2022/03/20 10:33:30;;;;;;;41.83;19.25;;;14.10;56.40;;;;;;4989389;28;20393;-68
2022/03/20 10:36:20;;;;;;;41.33;19.55;;;13.90;57.30;;;;;;4990242;28;20036;-69
2022/03/20 10:38:48;;;;;;;44.20;20.10;;;13.80;56.10;;;;;;4990411;28;20057;-68
2022/03/20 10:41:21;;;;;;;42.85;19.13;;;13.90;57.10;;;;;;5005984;28;20135;-70
2022/03/20 10:43:48;;;;;;;45.90;20.63;;;14.00;56.40;;;;;;5009240;28;20022;-70
2022/03/20 10:46:19;;;;;;;40.78;19.25;;;14.10;55.30;;;;;;5009843;28;20380;-68
2022/03/20 10:48:48;;;;;;;40.25;19.33;;;14.40;56.80;;;;;;5009059;28;20473;-68
2022/03/20 10:51:24;;;;;;;40.03;19.15;;;14.50;53.50;;;;;;5008479;28;20109;-69
2022/03/20 10:54:01;;;;;;;41.28;19.85;;;14.70;54.40;;;;;;5013530;28;20030;-68
2022/03/20 10:56:26;;;;;;;40.53;18.40;;;14.50;54.30;;;;;;5013092;28;20034;-70
2022/03/20 10:58:52;;;;;;;39.97;18.67;;;14.70;52.90;;;;;;5011915;28;20047;-70
2022/03/20 11:01:18;;;;;;;42.35;19.42;;;14.60;52.30;;;;;;5013210;28;20034;-68
2022/03/20 11:03:46;;;;;;;38.42;18.20;;;14.80;52.80;;;;;;5012293;28;20061;-70
2022/03/20 11:06:13;;;;;;;43.10;20.60;;;15.00;53.00;;;;;;5013585;28;20029;-69
2022/03/20 11:08:39;;;;;;;41.30;19.23;;;15.20;55.00;;;;;;5012709;28;20025;-70
2022/03/20 11:11:10;;;;;;;42.92;20.08;;;15.50;52.00;;;;;;5013291;28;20125;-70
2022/03/20 11:13:38;;;;;;;42.67;21.08;;;15.60;52.50;;;;;;5012286;28;20108;-69
2022/03/20 11:16:09;;;;;;;41.58;19.30;;;15.60;51.40;;;;;;5013358;28;20038;-71
2022/03/20 11:18:39;;;;;;;40.10;19.52;;;15.50;54.30;;;;;;5012217;28;20042;-68
2022/03/20 11:21:06;;;;;;;45.10;19.58;;;15.60;53.50;;;;;;5013065;28;20037;-69
2022/03/20 11:23:35;;;;;;;38.92;19.13;;;15.60;51.60;;;;;;5012155;28;20504;-70
2022/03/20 11:26:03;;;;;;;38.83;19.50;;;15.80;51.80;;;;;;5013206;28;20034;-69
2022/03/20 11:28:34;;;;;;;43.63;20.88;;;15.90;49.70;;;;;;5012596;28;20084;-68
2022/03/20 11:31:00;;;;;;;39.88;19.08;;;16.00;51.30;;;;;;5013093;28;20092;-70
2022/03/20 11:33:26;;;;;;;44.05;20.40;;;16.20;53.10;;;;;;5012135;28;20038;-68
2022/03/20 11:35:52;;;;;;;47.00;20.27;;;15.90;50.20;;;;;;5012947;28;20030;-69
2022/03/20 11:38:22;;;;;;;42.05;19.70;;;15.70;50.00;;;;;;5012792;28;20130;-68
2022/03/20 11:41:12;;;;;;;43.38;20.67;;;15.60;49.80;;;;;;5012245;28;20532;-69
2022/03/20 11:43:44;;;;;;;41.50;19.63;;;15.80;50.80;;;;;;4991201;28;20041;-68
2022/03/20 11:46:34;;;;;;;39.38;18.73;;;16.10;54.30;;;;;;4993166;28;20041;-68
2022/03/20 11:49:17;;;;;;;40.85;19.33;;;16.50;52.20;;;;;;4993239;28;20076;-68
2022/03/20 11:52:07;;;;;;;40.90;20.65;;;16.90;50.90;;;;;;4992388;28;20022;-70
2022/03/20 11:54:42;;;;;;;43.88;19.00;;;16.80;47.40;;;;;;4992340;28;20113;-70
2022/03/20 11:57:29;;;;;;;38.70;18.63;;;16.60;50.40;;;;;;4993136;28;20074;-69
2022/03/20 12:00:10;;;;;;;45.47;18.83;;;16.60;48.70;;;;;;4992968;28;20034;-69
2022/03/20 12:02:36;;;;;;;39.40;18.48;;;16.70;46.20;;;;;;5004438;28;20061;-71
2022/03/20 12:05:09;;;;;;;44.58;19.30;;;16.70;44.70;;;;;;5011950;28;20037;-69
2022/03/20 12:08:08;;;;;;;38.13;18.45;;;16.70;45.60;;;;;;5011574;28;20049;-69
2022/03/20 12:10:52;;;;;;;37.78;18.10;;;16.50;44.70;;;;;;5011355;28;20120;-70
2022/03/20 12:13:28;;;;;;;37.28;18.45;;;16.50;47.30;;;;;;5012019;28;20032;-68
2022/03/20 12:15:55;;;;;;;39.72;19.30;;;16.60;47.90;;;;;;5012081;28;20032;-70
2022/03/20 12:18:20;;;;;;;37.13;18.70;;;16.30;47.10;;;;;;5011923;28;20034;-69
2022/03/20 12:20:59;;;;;;;37.97;18.02;;;16.20;48.00;;;;;;5011428;28;20188;-69
2022/03/20 12:23:35;;;;;;;37.35;18.33;;;16.50;48.90;;;;;;5011087;28;20038;-68
2022/03/20 12:26:24;;;;;;;36.67;18.83;;;16.30;44.60;;;;;;5012092;28;20120;-69
2022/03/20 12:28:49;;;;;;;38.80;18.45;;;16.50;49.60;;;;;;5011691;28;20030;-68
2022/03/20 12:31:28;;;;;;;41.38;18.20;;;16.80;47.50;;;;;;5011025;28;20464;-67
2022/03/20 12:34:19;;;;;;;44.15;19.27;;;17.00;46.00;;;;;;5012061;28;20034;-69
2022/03/20 12:36:45;;;;;;;38.97;18.58;;;16.80;43.30;;;;;;5010537;28;20018;-69
2022/03/20 12:39:11;;;;;;;36.80;17.08;;;16.60;45.20;;;;;;5010473;28;20022;-68
2022/03/20 12:41:37;;;;;;;38.58;18.83;;;16.70;46.20;;;;;;5011330;28;20041;-70
2022/03/20 12:44:07;;;;;;;45.33;20.52;;;17.10;44.80;;;;;;5011880;28;20029;-69
2022/03/20 12:46:37;;;;;;;43.45;19.85;;;17.40;46.00;;;;;;5010539;28;20026;-70
2022/03/20 12:49:03;;;;;;;49.53;21.48;;;17.60;47.10;;;;;;5011329;28;20026;-69
2022/03/20 12:51:34;;;;;;;39.97;19.52;;;17.40;44.80;;;;;;5010861;28;20113;-68
2022/03/20 12:54:10;;;;;;;45.05;19.77;;;17.10;44.80;;;;;;5011544;28;20030;-68
2022/03/20 12:56:50;;;;;;;43.58;20.60;;;17.30;46.10;;;;;;5010400;28;20057;-69
2022/03/20 12:59:20;;;;;;;42.30;20.10;;;16.80;47.20;;;;;;5011598;28;20037;-68
2022/03/20 13:01:46;;;;;;;37.30;19.10;;;16.90;46.10;;;;;;5010338;28;20272;-68
2022/03/20 13:04:18;;;;;;;37.55;19.25;;;16.80;45.80;;;;;;5011145;28;20096;-69
2022/03/20 13:06:43;;;;;;;41.25;19.70;;;16.70;45.80;;;;;;5010292;28;20745;-69
2022/03/20 13:09:13;;;;;;;40.22;18.48;;;17.10;45.90;;;;;;5011312;28;20030;-69